createdAt,value
2023-10-02T00:01:57.747Z,11.80
2023-10-02T00:04:26.297Z,11.70
2023-10-02T00:07:09.939Z,11.70
2023-10-02T00:09:39.095Z,11.60
2023-10-02T00:12:13.702Z,11.60
2023-10-02T00:14:44.557Z,11.60
2023-10-02T00:17:15.950Z,11.50
2023-10-02T00:19:51.435Z,11.70
2023-10-02T00:22:40.251Z,11.60
2023-10-02T00:25:18.592Z,11.50
2023-10-02T00:27:50.341Z,11.60
2023-10-02T00:30:22.584Z,11.60
2023-10-02T00:32:57.316Z,11.70
2023-10-02T00:35:25.307Z,11.60
2023-10-02T00:37:57.042Z,11.60
2023-10-02T00:40:34.227Z,11.50
2023-10-02T00:43:25.235Z,11.60
2023-10-02T00:46:00.145Z,11.60
2023-10-02T00:48:32.025Z,11.60
2023-10-02T00:51:07.490Z,11.60
2023-10-02T00:53:48.129Z,11.70
2023-10-02T00:56:22.926Z,11.60
2023-10-02T00:59:17.715Z,11.70
2023-10-02T01:01:45.171Z,11.60
2023-10-02T01:04:26.049Z,11.50
2023-10-02T01:07:06.421Z,11.70
2023-10-02T01:09:39.707Z,11.50
2023-10-02T01:12:12.305Z,11.50
2023-10-02T01:15:08.014Z,11.60
2023-10-02T01:17:39.361Z,11.50
2023-10-02T01:20:29.933Z,11.60
2023-10-02T01:23:14.368Z,11.70
2023-10-02T01:25:42.276Z,11.70
2023-10-02T01:28:11.764Z,11.50
2023-10-02T01:30:40.989Z,11.50
2023-10-02T01:33:13.974Z,11.60
2023-10-02T01:35:49.840Z,11.50
2023-10-02T01:38:33.202Z,11.50
2023-10-02T01:41:09.818Z,11.40
2023-10-02T01:43:50.840Z,11.50
2023-10-02T01:46:27.161Z,11.40
2023-10-02T01:48:56.074Z,11.40
2023-10-02T01:51:29.831Z,11.30
2023-10-02T01:54:01.899Z,11.30
2023-10-02T01:56:36.232Z,11.20
2023-10-02T01:59:17.035Z,11.30
2023-10-02T02:01:48.658Z,11.30
2023-10-02T02:04:16.465Z,11.30
2023-10-02T02:06:54.530Z,11.20
2023-10-02T02:09:26.002Z,11.00
2023-10-02T02:12:11.291Z,11.10
2023-10-02T02:14:54.030Z,11.10
2023-10-02T02:17:43.048Z,11.00
2023-10-02T02:20:34.214Z,11.00
2023-10-02T02:23:11.391Z,11.00
2023-10-02T02:25:43.035Z,10.90
2023-10-02T02:28:10.940Z,11.00
2023-10-02T02:30:42.038Z,10.90
2023-10-02T02:33:13.916Z,10.90
2023-10-02T02:35:41.383Z,10.90
2023-10-02T02:38:18.208Z,10.90
2023-10-02T02:40:45.670Z,10.80
2023-10-02T02:43:20.787Z,10.90
2023-10-02T02:45:48.732Z,10.80
2023-10-02T02:48:17.870Z,10.80
2023-10-02T02:50:45.758Z,10.80
2023-10-02T02:53:24.826Z,10.80
2023-10-02T02:56:25.580Z,10.70
2023-10-02T02:58:57.705Z,10.70
2023-10-02T03:01:26.195Z,10.70
2023-10-02T03:03:57.262Z,10.70
2023-10-02T03:06:25.723Z,10.70
2023-10-02T03:08:59.691Z,10.70
2023-10-02T03:11:35.209Z,10.70
2023-10-02T03:14:14.700Z,10.70
2023-10-02T03:16:47.168Z,10.70
2023-10-02T03:19:17.680Z,10.70
2023-10-02T03:21:48.724Z,10.70
2023-10-02T03:24:20.836Z,10.70
2023-10-02T03:26:54.967Z,10.60
2023-10-02T03:29:27.938Z,10.60
2023-10-02T03:31:59.452Z,10.70
2023-10-02T03:34:30.251Z,10.60
2023-10-02T03:37:12.119Z,10.60
2023-10-02T03:40:00.467Z,10.60
2023-10-02T03:42:35.030Z,10.50
2023-10-02T03:45:06.761Z,10.50
2023-10-02T03:47:39.199Z,10.50
2023-10-02T03:50:14.361Z,10.50
2023-10-02T03:52:47.545Z,10.50
2023-10-02T03:55:20.762Z,10.50
2023-10-02T03:57:52.140Z,10.50
2023-10-02T04:00:23.647Z,10.40
2023-10-02T04:02:58.580Z,10.50
2023-10-02T04:05:55.873Z,10.50
2023-10-02T04:08:24.423Z,10.50
2023-10-02T04:10:57.988Z,10.50
2023-10-02T04:13:36.527Z,10.40
2023-10-02T04:16:23.880Z,10.40
2023-10-02T04:19:00.856Z,10.40
2023-10-02T04:21:30.595Z,10.40
2023-10-02T04:24:01.533Z,10.40
2023-10-02T04:26:36.081Z,10.40
2023-10-02T04:29:25.607Z,10.40
2023-10-02T04:32:15.083Z,10.40
2023-10-02T04:34:57.792Z,10.40
2023-10-02T04:37:25.815Z,10.50
2023-10-02T04:39:57.583Z,10.50
2023-10-02T04:42:47.402Z,10.60
2023-10-02T04:45:27.328Z,10.60
2023-10-02T04:47:57.232Z,10.60
2023-10-02T04:50:25.252Z,10.60
2023-10-02T04:53:00.269Z,10.70
2023-10-02T04:55:45.267Z,10.90
2023-10-02T04:58:21.532Z,11.00
2023-10-02T05:01:03.967Z,10.90
2023-10-02T05:03:51.201Z,11.20
2023-10-02T05:06:38.960Z,11.50
2023-10-02T05:09:20.509Z,11.50
2023-10-02T05:11:54.643Z,11.50
2023-10-02T05:14:49.242Z,11.80
2023-10-02T05:17:42.394Z,11.90
2023-10-02T05:20:17.853Z,12.10
2023-10-02T05:23:00.786Z,12.30
2023-10-02T05:25:39.910Z,12.50
2023-10-02T05:28:08.738Z,12.60
2023-10-02T05:30:46.199Z,12.70
2023-10-02T05:33:17.823Z,12.80
2023-10-02T05:35:47.869Z,12.90
2023-10-02T05:38:19.730Z,12.90
2023-10-02T05:40:55.240Z,13.00
2023-10-02T05:43:27.563Z,13.10
2023-10-02T05:45:55.193Z,13.30
2023-10-02T05:48:26.641Z,13.30
2023-10-02T05:51:11.616Z,13.40
2023-10-02T05:53:39.260Z,13.50
2023-10-02T05:56:13.790Z,13.70
2023-10-02T05:58:50.334Z,13.80
2023-10-02T06:01:38.924Z,13.90
2023-10-02T06:04:08.118Z,14.10
2023-10-02T06:17:14.518Z,14.30
2023-10-02T06:19:47.517Z,16.00
2023-10-02T06:22:20.306Z,16.70
2023-10-02T06:24:49.654Z,17.50
2023-10-02T06:27:18.861Z,18.10
2023-10-02T06:29:53.694Z,18.90
2023-10-02T06:32:22.274Z,19.70
2023-10-02T06:34:58.257Z,20.50
2023-10-02T06:37:37.663Z,21.40
2023-10-02T06:40:08.568Z,22.40
2023-10-02T06:42:50.408Z,23.20
2023-10-02T06:45:26.577Z,24.10
2023-10-02T06:48:00.122Z,25.10
2023-10-02T06:50:32.981Z,25.90
2023-10-02T06:53:03.904Z,26.50
2023-10-02T06:55:34.327Z,27.20
2023-10-02T06:58:04.949Z,27.80
2023-10-02T07:00:52.220Z,28.30
2023-10-02T07:03:19.877Z,28.80
2023-10-02T07:05:49.621Z,29.30
2023-10-02T07:08:22.873Z,29.80
2023-10-02T07:10:51.944Z,30.30
2023-10-02T07:13:23.391Z,30.60
2023-10-02T07:16:01.460Z,30.70
2023-10-02T07:18:40.022Z,31.00
2023-10-02T07:21:11.615Z,31.20
2023-10-02T07:23:42.734Z,31.60
2023-10-02T07:26:46.203Z,31.80
2023-10-02T07:29:14.979Z,31.90
2023-10-02T07:31:46.139Z,32.20
2023-10-02T07:41:08.148Z,33.40
2023-10-02T07:43:44.088Z,33.70
2023-10-02T07:46:27.861Z,34.00
2023-10-02T07:49:23.684Z,34.10
2023-10-02T07:51:58.891Z,34.30
2023-10-02T07:54:46.113Z,34.40
2023-10-02T07:57:19.786Z,34.70
2023-10-02T07:59:49.179Z,35.10
2023-10-02T08:02:24.702Z,35.30
2023-10-02T08:05:02.669Z,35.60
2023-10-02T08:07:46.494Z,35.90
2023-10-02T08:10:16.685Z,36.00
2023-10-02T08:15:52.696Z,36.10
2023-10-02T08:18:57.932Z,35.80
2023-10-02T08:21:47.878Z,35.80
2023-10-02T08:24:16.258Z,36.00
2023-10-02T08:26:47.369Z,35.90
2023-10-02T08:29:20.638Z,36.10
2023-10-02T08:31:51.095Z,36.40
2023-10-02T08:34:26.078Z,36.40
2023-10-02T08:37:12.142Z,36.50
2023-10-02T08:39:41.939Z,36.70
2023-10-02T08:42:11.358Z,36.90
2023-10-02T08:44:42.436Z,36.90
2023-10-02T08:47:14.351Z,37.00
2023-10-02T08:49:44.163Z,36.90
2023-10-02T08:52:17.529Z,36.90
2023-10-02T08:54:49.032Z,36.70
2023-10-02T08:57:20.165Z,36.50
2023-10-02T09:00:03.501Z,36.30
2023-10-02T09:02:32.529Z,35.90
2023-10-02T09:05:00.412Z,35.80
2023-10-02T09:07:47.035Z,35.70
2023-10-02T09:10:27.050Z,35.50
2023-10-02T09:13:19.596Z,35.10
2023-10-02T09:15:55.537Z,34.60
2023-10-02T09:18:59.480Z,34.20
2023-10-02T09:21:41.609Z,33.70
2023-10-02T09:24:25.628Z,33.40
2023-10-02T09:26:59.187Z,33.40
2023-10-02T09:29:29.203Z,33.20
2023-10-02T09:32:00.002Z,32.90
2023-10-02T09:35:10.139Z,32.50
2023-10-02T09:38:51.648Z,31.90
2023-10-02T09:41:45.049Z,30.50
2023-10-02T09:44:20.445Z,29.20
2023-10-02T09:47:22.752Z,28.30
2023-10-02T09:50:36.504Z,27.50
2023-10-02T09:53:10.728Z,26.90
2023-10-02T09:56:03.785Z,26.30
2023-10-02T09:58:38.967Z,26.50
2023-10-02T10:01:35.605Z,27.10
2023-10-02T10:04:30.000Z,27.60
2023-10-02T10:07:11.998Z,28.00
2023-10-02T10:09:53.906Z,27.90
2023-10-02T10:12:56.480Z,27.60
2023-10-02T10:15:30.403Z,27.30
2023-10-02T10:17:58.680Z,26.90
2023-10-02T10:20:32.299Z,26.90
2023-10-02T10:23:33.171Z,26.90
2023-10-02T10:26:18.475Z,27.00
2023-10-02T10:28:55.056Z,27.00
2023-10-02T10:31:35.365Z,26.90
2023-10-02T10:34:02.728Z,26.80
2023-10-02T10:36:39.355Z,26.50
2023-10-02T10:39:32.594Z,26.10
2023-10-02T10:42:03.688Z,25.70
2023-10-02T10:44:34.474Z,25.30
2023-10-02T10:47:05.399Z,25.10
2023-10-02T10:50:09.229Z,24.70
2023-10-02T10:52:37.046Z,24.40
2023-10-02T10:55:33.976Z,24.20
2023-10-02T10:58:07.123Z,24.00
2023-10-02T11:00:41.978Z,23.90
2023-10-02T11:03:16.653Z,24.10
2023-10-02T11:05:45.078Z,24.00
2023-10-02T11:08:26.918Z,24.00
2023-10-02T11:11:27.969Z,23.80
2023-10-02T11:14:04.225Z,23.70
2023-10-02T11:16:46.304Z,23.70
2023-10-02T11:19:23.439Z,23.70
2023-10-02T11:22:04.878Z,23.90
2023-10-02T11:24:38.919Z,23.80
2023-10-02T11:27:24.129Z,24.00
2023-10-02T11:30:12.105Z,24.00
2023-10-02T11:33:00.681Z,24.10
2023-10-02T11:35:39.749Z,24.20
2023-10-02T11:38:09.334Z,24.10
2023-10-02T11:40:38.588Z,24.10
2023-10-02T11:43:06.270Z,24.00
2023-10-02T11:45:37.973Z,23.90
2023-10-02T11:48:08.735Z,23.80
2023-10-02T11:50:43.486Z,23.60
2023-10-02T11:53:15.028Z,23.40
2023-10-02T11:55:43.314Z,23.40
2023-10-02T11:58:11.610Z,23.30
2023-10-02T12:00:40.001Z,23.30
2023-10-02T12:03:07.531Z,23.40
2023-10-02T12:05:39.455Z,23.40
2023-10-02T12:08:07.114Z,23.40
2023-10-02T12:10:40.787Z,23.30
2023-10-02T12:13:13.745Z,23.20
2023-10-02T12:15:50.475Z,23.30
2023-10-02T12:18:18.262Z,23.10
2023-10-02T12:20:47.508Z,23.00
2023-10-02T12:23:16.401Z,22.90
2023-10-02T12:25:49.551Z,22.70
2023-10-02T12:28:17.370Z,22.60
2023-10-02T12:30:44.886Z,22.60
2023-10-02T12:33:13.889Z,22.50
2023-10-02T12:35:41.875Z,22.50
2023-10-02T12:38:09.460Z,22.70
2023-10-02T12:40:37.282Z,22.70
2023-10-02T12:43:05.217Z,22.80
2023-10-02T12:45:38.703Z,22.90
2023-10-02T12:48:08.055Z,22.90
2023-10-02T12:50:43.762Z,22.90
2023-10-02T12:53:12.781Z,22.80
2023-10-02T12:55:47.238Z,22.80
2023-10-02T12:58:17.394Z,22.60
2023-10-02T13:00:47.420Z,22.60
2023-10-02T13:03:17.288Z,22.40
2023-10-02T13:05:48.085Z,22.40
2023-10-02T13:08:18.911Z,22.20
2023-10-02T13:10:46.981Z,22.10
2023-10-02T13:13:18.150Z,22.00
2023-10-02T13:15:57.412Z,22.00
2023-10-02T13:18:29.026Z,22.00
2023-10-02T13:21:00.027Z,22.10
2023-10-02T13:23:27.907Z,21.90
2023-10-02T13:25:56.425Z,21.70
2023-10-02T13:28:40.773Z,21.70
2023-10-02T13:31:20.925Z,21.60
2023-10-02T13:33:56.369Z,21.50
2023-10-02T13:36:26.759Z,21.40
2023-10-02T13:39:00.529Z,21.30
2023-10-02T13:41:29.524Z,21.10
2023-10-02T13:43:57.530Z,21.10
2023-10-02T13:46:28.178Z,21.00
2023-10-02T13:49:05.637Z,20.90
2023-10-02T13:51:33.570Z,20.80
2023-10-02T13:54:01.106Z,20.80
2023-10-02T13:56:35.171Z,20.80
2023-10-02T13:59:03.569Z,20.80
2023-10-02T14:01:37.624Z,20.70
2023-10-02T14:04:08.578Z,20.70
2023-10-02T14:06:37.198Z,20.70
2023-10-02T14:09:05.792Z,20.60
2023-10-02T14:11:34.836Z,20.50
2023-10-02T14:14:02.827Z,20.60
2023-10-02T14:16:32.097Z,20.60
2023-10-02T14:19:01.941Z,20.50
2023-10-02T14:21:30.886Z,20.50
2023-10-02T14:24:02.241Z,20.50
2023-10-02T14:26:30.978Z,20.60
2023-10-02T14:29:00.753Z,20.60
2023-10-02T14:31:33.222Z,20.60
2023-10-02T14:34:02.656Z,20.60
2023-10-02T14:36:31.197Z,20.50
2023-10-02T14:39:02.488Z,20.40
2023-10-02T14:41:30.149Z,20.40
2023-10-02T14:43:59.669Z,20.30
2023-10-02T14:46:27.308Z,20.20
2023-10-02T14:48:59.970Z,20.30
2023-10-02T14:51:27.537Z,20.30
2023-10-02T14:53:55.061Z,20.20
2023-10-02T14:56:23.060Z,20.10
2023-10-02T14:58:52.327Z,20.10
2023-10-02T15:01:21.141Z,20.10
2023-10-02T15:03:50.558Z,20.00
2023-10-02T15:06:18.377Z,19.90
2023-10-02T15:08:45.915Z,19.70
2023-10-02T15:11:16.695Z,19.70
2023-10-02T15:13:46.800Z,19.60
2023-10-02T15:16:19.625Z,19.50
2023-10-02T15:18:49.755Z,19.40
2023-10-02T15:21:18.664Z,19.30
2023-10-02T15:23:47.368Z,19.30
2023-10-02T15:26:17.314Z,19.20
2023-10-02T15:28:45.088Z,19.20
2023-10-02T15:31:15.591Z,19.20
2023-10-02T15:33:44.695Z,19.00
2023-10-02T15:36:17.003Z,18.90
2023-10-02T15:38:49.026Z,18.90
2023-10-02T15:41:33.298Z,18.80
2023-10-02T15:44:03.298Z,18.90
2023-10-02T15:46:33.614Z,18.80
2023-10-02T15:49:04.977Z,18.80
2023-10-02T15:51:34.902Z,18.80
2023-10-02T15:54:02.491Z,18.60
2023-10-02T15:56:29.895Z,18.60
2023-10-02T15:58:57.572Z,18.60
2023-10-02T16:01:25.009Z,18.60
2023-10-02T16:03:52.983Z,18.50
2023-10-02T16:06:20.895Z,18.50
2023-10-02T16:08:49.525Z,18.40
2023-10-02T16:11:22.306Z,18.40
2023-10-02T16:13:51.339Z,18.30
2023-10-02T16:16:18.828Z,18.40
2023-10-02T16:18:48.359Z,18.30
2023-10-02T16:21:22.357Z,18.30
2023-10-02T16:23:50.824Z,18.20
2023-10-02T16:26:20.846Z,18.20
2023-10-02T16:28:50.140Z,18.10
2023-10-02T16:31:26.707Z,18.10
2023-10-02T16:33:54.899Z,18.20
2023-10-02T16:36:27.235Z,18.10
2023-10-02T16:39:05.279Z,18.30
2023-10-02T16:41:37.298Z,18.20
2023-10-02T16:44:06.410Z,18.20
2023-10-02T16:46:35.066Z,18.20
2023-10-02T16:49:03.303Z,18.30
2023-10-02T16:51:31.060Z,18.30
2023-10-02T16:53:59.087Z,18.30
2023-10-02T16:56:30.077Z,18.20
2023-10-02T16:58:57.339Z,18.20
2023-10-02T17:01:24.703Z,18.10
2023-10-02T17:03:52.658Z,18.10
2023-10-02T17:06:23.959Z,18.10
2023-10-02T17:08:53.673Z,17.90
2023-10-02T17:11:24.788Z,17.80
2023-10-02T17:13:52.428Z,17.90
2023-10-02T17:16:20.232Z,17.90
2023-10-02T17:18:47.954Z,17.60
2023-10-02T17:21:17.071Z,17.60
2023-10-02T17:23:44.575Z,17.60
2023-10-02T17:26:12.693Z,17.60
2023-10-02T17:28:40.283Z,17.70
2023-10-02T17:31:10.240Z,17.60
2023-10-02T17:33:49.517Z,17.60
2023-10-02T17:36:16.818Z,17.70
2023-10-02T17:38:44.829Z,17.70
2023-10-02T17:41:13.207Z,17.60
2023-10-02T17:43:40.702Z,17.50
2023-10-02T17:46:08.511Z,17.50
2023-10-02T17:48:36.294Z,17.40
2023-10-02T17:51:06.688Z,17.30
2023-10-02T17:53:34.307Z,17.30
2023-10-02T17:56:04.265Z,17.30
2023-10-02T17:58:31.627Z,17.10
2023-10-02T18:01:04.392Z,17.20
2023-10-02T18:03:35.193Z,17.20
2023-10-02T18:06:02.874Z,17.20
2023-10-02T18:08:30.242Z,17.10
2023-10-02T18:10:58.170Z,17.10
2023-10-02T18:13:25.629Z,17.10
2023-10-02T18:15:55.132Z,17.10
2023-10-02T18:18:23.169Z,17.00
2023-10-02T18:20:52.865Z,17.10
2023-10-02T18:23:20.746Z,17.00
2023-10-02T18:25:55.426Z,17.00
2023-10-02T18:28:23.156Z,17.00
2023-10-02T18:30:51.151Z,16.90
2023-10-02T18:33:19.273Z,16.90
2023-10-02T18:35:46.700Z,16.90
2023-10-02T18:38:14.360Z,17.00
2023-10-02T18:40:47.960Z,17.00
2023-10-02T18:43:16.549Z,17.10
2023-10-02T18:45:44.024Z,17.10
2023-10-02T18:48:12.883Z,17.20
2023-10-02T18:50:40.388Z,17.10
2023-10-02T18:53:08.362Z,17.10
2023-10-02T18:55:36.288Z,17.20
2023-10-02T18:58:06.882Z,17.20
2023-10-02T19:00:34.666Z,17.20
2023-10-02T19:03:03.982Z,17.20
2023-10-02T19:05:32.073Z,17.30
2023-10-02T19:08:01.714Z,17.20
2023-10-02T19:10:29.481Z,17.10
2023-10-02T19:12:58.714Z,17.00
2023-10-02T19:15:27.166Z,16.90
2023-10-02T19:17:54.656Z,16.90
2023-10-02T19:20:22.534Z,16.80
2023-10-02T19:22:50.200Z,16.80
2023-10-02T19:25:17.466Z,16.70
2023-10-02T19:27:47.455Z,16.80
2023-10-02T19:30:16.286Z,16.60
2023-10-02T19:32:45.164Z,16.60
2023-10-02T19:35:14.124Z,16.50
2023-10-02T19:37:41.540Z,16.50
2023-10-02T19:40:11.953Z,16.50
2023-10-02T19:42:39.319Z,16.40
2023-10-02T19:45:07.366Z,16.40
2023-10-02T19:47:35.074Z,16.30
2023-10-02T19:50:02.191Z,16.30
2023-10-02T19:52:31.568Z,16.30
2023-10-02T19:54:59.030Z,16.20
2023-10-02T19:57:26.150Z,16.20
2023-10-02T19:59:53.669Z,16.10
2023-10-02T20:02:21.103Z,16.10
2023-10-02T20:04:48.629Z,16.10
2023-10-02T20:07:16.459Z,16.00
2023-10-02T20:09:43.934Z,16.00
2023-10-02T20:12:11.321Z,16.10
2023-10-02T20:14:38.555Z,16.10
2023-10-02T20:17:06.794Z,16.10
2023-10-02T20:19:34.907Z,16.00
2023-10-02T20:22:06.696Z,16.10
2023-10-02T20:24:34.607Z,16.10
2023-10-02T20:27:01.869Z,16.20
2023-10-02T20:29:29.386Z,16.10
2023-10-02T20:31:56.936Z,16.20
2023-10-02T20:34:36.321Z,16.20
2023-10-02T20:37:05.972Z,16.20
2023-10-02T20:39:33.730Z,16.30
2023-10-02T20:42:02.138Z,16.30
2023-10-02T20:44:30.734Z,16.30
2023-10-02T20:47:07.831Z,16.50
2023-10-02T20:49:39.488Z,16.40
2023-10-02T20:52:07.251Z,16.40
2023-10-02T20:54:34.673Z,16.50
2023-10-02T20:57:02.571Z,16.50
2023-10-02T20:59:30.099Z,16.40
2023-10-02T21:01:58.036Z,16.40
2023-10-02T21:04:25.478Z,16.50
2023-10-02T21:06:53.656Z,16.40
2023-10-02T21:09:24.165Z,16.40
2023-10-02T21:11:53.032Z,16.40
2023-10-02T21:14:24.014Z,16.40
2023-10-02T21:16:52.470Z,16.40
2023-10-02T21:19:20.106Z,16.30
2023-10-02T21:21:51.983Z,16.40
2023-10-02T21:24:22.923Z,16.30
2023-10-02T21:26:51.078Z,16.30
2023-10-02T21:29:19.234Z,16.30
2023-10-02T21:31:47.048Z,16.30
2023-10-02T21:34:14.714Z,16.20
2023-10-02T21:36:43.017Z,16.30
2023-10-02T21:39:16.258Z,16.20
2023-10-02T21:41:46.135Z,16.20
2023-10-02T21:44:13.778Z,16.10
2023-10-02T21:46:41.236Z,16.10
2023-10-02T21:49:09.536Z,16.10
2023-10-02T21:51:36.691Z,16.10
2023-10-02T21:54:07.290Z,16.00
2023-10-02T21:56:36.545Z,16.00
2023-10-02T21:59:04.719Z,16.00
2023-10-02T22:01:32.360Z,15.90
2023-10-02T22:03:59.776Z,15.90
2023-10-02T22:06:27.558Z,15.80
2023-10-02T22:08:54.852Z,15.80
2023-10-02T22:11:22.656Z,15.80
2023-10-02T22:13:50.304Z,15.80
2023-10-02T22:16:19.689Z,15.80
2023-10-02T22:18:48.305Z,15.80
2023-10-02T22:21:21.669Z,15.80
2023-10-02T22:23:50.822Z,15.90
2023-10-02T22:26:19.003Z,16.00
2023-10-02T22:28:48.994Z,16.10
2023-10-02T22:31:17.089Z,16.00
2023-10-02T22:33:48.651Z,15.90
2023-10-02T22:36:17.568Z,16.00
2023-10-02T22:38:45.431Z,16.00
2023-10-02T22:41:13.071Z,15.90
2023-10-02T22:43:41.602Z,16.10
2023-10-02T22:46:10.385Z,16.00
2023-10-02T22:48:38.843Z,15.90
2023-10-02T22:51:06.390Z,15.90
2023-10-02T22:53:35.618Z,16.00
2023-10-02T22:56:04.586Z,16.00
2023-10-02T22:58:32.654Z,16.10
2023-10-02T23:00:59.976Z,16.10
2023-10-02T23:03:28.176Z,16.00
2023-10-02T23:05:55.911Z,16.10
2023-10-02T23:08:29.341Z,16.00
2023-10-02T23:10:57.619Z,16.00
2023-10-02T23:13:25.581Z,15.90
2023-10-02T23:15:52.769Z,16.00
2023-10-02T23:18:20.325Z,16.00
2023-10-02T23:20:48.940Z,15.90
2023-10-02T23:23:16.268Z,16.00
2023-10-02T23:25:43.922Z,15.90
2023-10-02T23:28:11.612Z,16.00
2023-10-02T23:30:42.659Z,16.00
2023-10-02T23:33:11.730Z,16.10
2023-10-02T23:35:44.823Z,16.20
2023-10-02T23:38:13.796Z,16.10
2023-10-02T23:40:45.908Z,16.20
2023-10-02T23:43:21.074Z,16.10
2023-10-02T23:45:49.280Z,16.10
2023-10-02T23:48:21.132Z,16.20
2023-10-02T23:50:49.426Z,16.20
2023-10-02T23:53:26.089Z,16.30
2023-10-02T23:56:02.275Z,16.30
2023-10-02T23:58:30.248Z,16.20
